createdAt,value
2023-05-20T00:01:12.863Z,16.50
2023-05-20T00:04:15.242Z,16.10
2023-05-20T00:07:17.210Z,15.30
2023-05-20T00:10:18.924Z,15.40
2023-05-20T00:13:20.684Z,14.80
2023-05-20T00:16:22.490Z,15.10
2023-05-20T00:19:24.359Z,14.50
2023-05-20T00:22:26.140Z,16.00
2023-05-20T00:25:28.030Z,14.90
2023-05-20T00:28:30.120Z,14.80
2023-05-20T00:31:31.908Z,16.00
2023-05-20T00:34:33.712Z,14.40
2023-05-20T00:37:35.494Z,14.30
2023-05-20T00:40:37.354Z,14.10
2023-05-20T00:43:39.117Z,13.90
2023-05-20T00:46:41.012Z,14.30
2023-05-20T00:49:50.359Z,12.70
2023-05-20T00:52:54.834Z,14.40
2023-05-20T00:55:56.726Z,14.10
2023-05-20T00:58:58.519Z,14.00
2023-05-20T01:02:01.237Z,12.90
2023-05-20T01:05:03.245Z,13.80
2023-05-20T01:08:05.113Z,13.40
2023-05-20T01:11:10.932Z,13.80
2023-05-20T01:14:17.238Z,13.10
2023-05-20T01:17:20.415Z,14.00
2023-05-20T01:20:22.320Z,13.60
2023-05-20T01:23:32.036Z,13.90
2023-05-20T01:26:37.726Z,13.20
2023-05-20T01:29:41.607Z,13.70
2023-05-20T01:32:47.952Z,14.10
2023-05-20T01:35:49.775Z,13.70
2023-05-20T01:38:53.728Z,13.80
2023-05-20T01:41:56.116Z,14.10
2023-05-20T01:44:58.967Z,13.70
2023-05-20T01:48:02.184Z,13.80
2023-05-20T01:51:04.062Z,13.70
2023-05-20T01:54:05.756Z,13.50
2023-05-20T01:57:07.548Z,13.60
2023-05-20T02:00:10.312Z,13.50
2023-05-20T02:03:19.423Z,13.50
2023-05-20T02:06:21.255Z,14.80
2023-05-20T02:09:23.049Z,14.80
2023-05-20T02:12:27.238Z,14.80
2023-05-20T02:15:29.095Z,15.20
2023-05-20T02:18:32.120Z,16.20
2023-05-20T02:21:34.701Z,15.20
2023-05-20T02:24:36.509Z,16.70
2023-05-20T02:27:40.036Z,16.20
2023-05-20T02:30:41.729Z,17.20
2023-05-20T02:33:44.292Z,17.70
2023-05-20T02:36:46.205Z,17.40
2023-05-20T02:39:48.066Z,18.40
2023-05-20T02:42:50.025Z,16.80
2023-05-20T02:45:51.857Z,15.30
2023-05-20T02:48:53.613Z,16.50
2023-05-20T02:51:55.865Z,18.60
2023-05-20T02:58:00.370Z,23.90
2023-05-20T03:04:04.955Z,20.30
2023-05-20T03:07:09.554Z,21.30
2023-05-20T03:10:11.371Z,22.20
2023-05-20T03:13:14.705Z,23.20
2023-05-20T03:16:16.667Z,22.00
2023-05-20T03:19:19.220Z,22.40
2023-05-20T03:22:21.161Z,22.50
2023-05-20T03:25:24.561Z,20.90
2023-05-20T03:28:26.337Z,20.80
2023-05-20T03:31:28.896Z,22.30
2023-05-20T03:34:30.695Z,22.60
2023-05-20T03:37:32.447Z,21.90
2023-05-20T03:40:34.224Z,20.90
2023-05-20T03:43:35.974Z,20.60
2023-05-20T03:46:37.859Z,21.80
2023-05-20T03:49:40.601Z,20.90
2023-05-20T03:52:42.319Z,20.00
2023-05-20T03:55:44.277Z,23.20
2023-05-20T03:58:47.108Z,17.50
2023-05-20T04:01:48.932Z,17.30
2023-05-20T04:04:57.061Z,14.70
2023-05-20T04:07:59.856Z,14.00
2023-05-20T04:14:03.925Z,10.60
2023-05-20T04:17:05.739Z,11.20
2023-05-20T04:20:08.097Z,11.10
2023-05-20T04:23:10.723Z,10.70
2023-05-20T04:26:12.689Z,11.60
2023-05-20T04:29:15.520Z,12.10
2023-05-20T04:32:18.831Z,12.70
2023-05-20T04:35:21.033Z,11.00
2023-05-20T04:38:29.588Z,9.50
2023-05-20T04:41:31.627Z,8.90
2023-05-20T04:44:33.849Z,8.00
2023-05-20T04:50:41.265Z,7.60
2023-05-20T04:53:46.031Z,8.50
2023-05-20T04:56:47.992Z,10.00
2023-05-20T04:59:49.746Z,10.30
2023-05-20T05:02:51.624Z,11.20
2023-05-20T05:05:57.712Z,12.30
2023-05-20T05:08:59.625Z,12.70
2023-05-20T05:12:02.187Z,12.30
2023-05-20T05:15:04.623Z,12.10
2023-05-20T05:18:06.527Z,11.50
2023-05-20T05:21:08.762Z,11.00
2023-05-20T05:24:10.998Z,11.00
2023-05-20T05:27:13.001Z,11.50
2023-05-20T05:30:14.761Z,8.60
2023-05-20T05:33:16.990Z,8.90
2023-05-20T05:36:19.014Z,8.10
2023-05-20T05:39:21.119Z,7.70
2023-05-20T05:42:22.978Z,7.70
2023-05-20T05:45:24.950Z,7.30
2023-05-20T05:48:26.768Z,7.20
2023-05-20T05:51:28.667Z,8.00
2023-05-20T05:54:30.616Z,7.60
2023-05-20T05:57:32.527Z,8.60
2023-05-20T06:00:34.430Z,7.30
2023-05-20T06:03:36.743Z,7.40
2023-05-20T06:06:38.552Z,7.70
2023-05-20T06:09:40.299Z,7.60
2023-05-20T06:12:42.815Z,7.90
2023-05-20T06:15:45.639Z,7.70
2023-05-20T06:18:49.729Z,8.20
2023-05-20T06:21:51.558Z,8.40
2023-05-20T06:24:56.076Z,8.70
2023-05-20T06:27:57.897Z,9.20
2023-05-20T06:34:04.991Z,8.70
2023-05-20T06:37:06.845Z,10.40
2023-05-20T06:40:09.358Z,9.20
2023-05-20T06:43:11.631Z,10.00
2023-05-20T06:46:28.391Z,10.20
2023-05-20T06:49:35.260Z,12.80
2023-05-20T06:52:37.162Z,11.90
2023-05-20T06:55:39.172Z,10.80
2023-05-20T06:58:41.901Z,11.20
2023-05-20T07:01:44.085Z,12.80
2023-05-20T07:04:46.857Z,13.40
2023-05-20T07:07:48.831Z,14.90
2023-05-20T07:10:50.942Z,13.00
2023-05-20T07:13:55.830Z,12.60
2023-05-20T07:16:59.344Z,12.10
2023-05-20T07:20:03.626Z,11.90
2023-05-20T07:23:05.676Z,12.50
2023-05-20T07:26:14.623Z,12.50
2023-05-20T07:29:16.450Z,13.20
2023-05-20T07:32:19.470Z,12.90
2023-05-20T07:35:21.229Z,13.10
2023-05-20T07:38:23.027Z,14.20
2023-05-20T07:41:34.606Z,13.40
2023-05-20T07:44:36.564Z,14.20
2023-05-20T07:47:39.476Z,13.30
2023-05-20T07:53:43.311Z,12.60
2023-05-20T07:56:45.719Z,13.30
2023-05-20T07:59:48.029Z,15.20
2023-05-20T08:02:50.733Z,14.90
2023-05-20T08:05:56.963Z,13.70
2023-05-20T08:08:59.519Z,14.40
2023-05-20T08:12:05.519Z,14.90
2023-05-20T08:18:10.361Z,13.00
2023-05-20T08:24:15.396Z,13.50
2023-05-20T08:27:17.111Z,15.00
2023-05-20T08:30:19.116Z,15.00
2023-05-20T08:33:21.994Z,14.50
2023-05-20T08:36:24.067Z,16.10
2023-05-20T08:39:26.642Z,14.60
2023-05-20T08:42:31.020Z,15.10
2023-05-20T08:45:37.368Z,14.90
2023-05-20T08:48:41.869Z,14.60
2023-05-20T08:51:45.594Z,15.20
2023-05-20T08:54:49.229Z,15.60
2023-05-20T08:57:51.341Z,15.60
2023-05-20T09:00:53.041Z,16.60
2023-05-20T09:03:54.831Z,15.60
2023-05-20T09:06:56.595Z,15.30
2023-05-20T09:09:58.361Z,16.90
2023-05-20T09:13:02.126Z,15.80
2023-05-20T09:16:04.300Z,15.10
2023-05-20T09:19:06.916Z,14.70
2023-05-20T09:22:09.222Z,15.40
2023-05-20T09:28:14.377Z,15.20
2023-05-20T09:31:16.525Z,15.40
2023-05-20T09:37:22.107Z,15.20
2023-05-20T09:40:28.275Z,16.40
2023-05-20T09:43:30.819Z,15.50
2023-05-20T09:46:33.892Z,15.10
2023-05-20T09:49:37.720Z,13.90
2023-05-20T09:52:39.503Z,14.50
2023-05-20T09:55:41.970Z,14.00
2023-05-20T09:58:45.254Z,13.90
2023-05-20T10:01:49.773Z,14.20
2023-05-20T10:04:54.033Z,13.50
2023-05-20T10:08:11.230Z,13.70
2023-05-20T10:11:48.127Z,14.40
2023-05-20T10:15:23.596Z,14.80
2023-05-20T10:18:40.506Z,13.70
2023-05-20T10:21:43.731Z,13.90
2023-05-20T10:24:45.608Z,13.80
2023-05-20T10:27:47.965Z,13.40
2023-05-20T10:30:50.526Z,14.30
2023-05-20T10:33:53.321Z,14.10
2023-05-20T10:36:55.232Z,13.20
2023-05-20T10:40:10.993Z,12.30
2023-05-20T10:43:13.974Z,12.30
2023-05-20T10:46:31.836Z,12.10
2023-05-20T10:49:47.759Z,11.70
2023-05-20T10:52:49.677Z,11.90
2023-05-20T10:55:52.801Z,12.20
2023-05-20T10:58:55.451Z,12.00
2023-05-20T11:01:57.483Z,11.60
2023-05-20T11:05:00.282Z,11.70
2023-05-20T11:08:08.539Z,12.40
2023-05-20T11:11:22.342Z,11.90
2023-05-20T11:14:24.384Z,11.40
2023-05-20T11:17:26.191Z,11.60
2023-05-20T11:20:28.295Z,11.80
2023-05-20T11:23:30.326Z,12.20
2023-05-20T11:26:32.732Z,12.50
2023-05-20T11:29:34.752Z,12.90
2023-05-20T11:32:36.696Z,12.00
2023-05-20T11:35:51.297Z,13.20
2023-05-20T11:38:53.063Z,12.90
2023-05-20T11:41:55.130Z,14.10
2023-05-20T11:45:01.221Z,14.30
2023-05-20T11:48:05.286Z,14.50
2023-05-20T11:51:07.992Z,14.30
2023-05-20T11:54:10.095Z,15.20
2023-05-20T12:00:13.587Z,14.80
2023-05-20T12:03:15.999Z,14.70
2023-05-20T12:06:17.829Z,14.60
2023-05-20T12:09:19.570Z,14.60
2023-05-20T12:12:21.365Z,14.30
2023-05-20T12:15:25.527Z,14.70
2023-05-20T12:18:27.326Z,14.50
2023-05-20T12:21:30.639Z,15.10
2023-05-20T12:24:32.391Z,13.90
2023-05-20T12:27:34.153Z,14.50
2023-05-20T12:30:36.177Z,15.20
2023-05-20T12:33:38.053Z,14.40
2023-05-20T12:36:39.885Z,13.80
2023-05-20T12:39:41.602Z,15.10
2023-05-20T12:42:43.997Z,14.80
2023-05-20T12:45:46.306Z,13.60
2023-05-20T12:48:48.230Z,14.40
2023-05-20T12:51:50.051Z,13.50
2023-05-20T12:54:53.541Z,13.40
2023-05-20T12:57:55.746Z,13.90
2023-05-20T13:00:57.567Z,13.40
2023-05-20T13:03:59.348Z,13.80
2023-05-20T13:10:03.847Z,12.30
2023-05-20T13:13:05.677Z,12.80
2023-05-20T13:16:07.489Z,12.80
2023-05-20T13:19:09.290Z,11.90
2023-05-20T13:22:11.410Z,12.00
2023-05-20T13:25:13.253Z,11.70
2023-05-20T13:31:20.139Z,12.70
2023-05-20T13:37:23.605Z,12.30
2023-05-20T13:40:25.466Z,12.00
2023-05-20T13:43:28.034Z,11.80
2023-05-20T13:46:29.861Z,11.70
2023-05-20T13:49:31.646Z,12.00
2023-05-20T13:52:33.527Z,11.00
2023-05-20T13:55:35.851Z,12.10
2023-05-20T13:58:38.168Z,11.40
2023-05-20T14:01:44.292Z,11.70
2023-05-20T14:04:46.455Z,11.70
2023-05-20T14:07:48.523Z,11.60
2023-05-20T14:13:55.932Z,11.90
2023-05-20T14:16:58.005Z,11.70
2023-05-20T14:23:01.956Z,10.90
2023-05-20T14:26:03.743Z,11.20
2023-05-20T14:29:05.725Z,11.60
2023-05-20T14:32:08.399Z,12.00
2023-05-20T14:35:10.403Z,11.10
2023-05-20T14:41:13.774Z,11.50
2023-05-20T14:44:15.485Z,11.40
2023-05-20T14:47:21.410Z,11.20
2023-05-20T14:50:23.201Z,11.50
2023-05-20T14:53:25.022Z,11.20
2023-05-20T14:56:26.796Z,10.10
2023-05-20T14:59:28.578Z,9.60
2023-05-20T15:02:30.642Z,9.60
2023-05-20T15:05:32.564Z,9.90
2023-05-20T15:08:34.302Z,10.10
2023-05-20T15:11:36.030Z,11.10
2023-05-20T15:14:37.977Z,10.20
2023-05-20T15:17:39.924Z,9.80
2023-05-20T15:20:41.920Z,9.50
2023-05-20T15:23:43.834Z,9.10
2023-05-20T15:26:46.059Z,9.80
2023-05-20T15:29:48.113Z,10.00
2023-05-20T15:32:50.066Z,10.90
2023-05-20T15:38:53.626Z,10.10
2023-05-20T15:41:55.458Z,10.80
2023-05-20T15:44:57.392Z,10.30
2023-05-20T15:47:59.636Z,10.50
2023-05-20T15:51:01.417Z,9.90
2023-05-20T15:54:03.102Z,10.10
2023-05-20T15:57:05.189Z,9.50
2023-05-20T16:03:11.783Z,9.60
2023-05-20T16:06:13.901Z,9.20
2023-05-20T16:09:15.908Z,9.10
2023-05-20T16:12:18.612Z,8.90
2023-05-20T16:15:20.425Z,9.60
2023-05-20T16:18:23.015Z,9.80
2023-05-20T16:21:25.525Z,9.90
2023-05-20T16:24:27.238Z,10.90
2023-05-20T16:27:29.089Z,10.50
2023-05-20T16:30:30.994Z,9.60
2023-05-20T16:33:32.751Z,10.10
2023-05-20T16:36:34.505Z,10.00
2023-05-20T16:39:36.253Z,10.80
2023-05-20T16:42:39.135Z,11.20
2023-05-20T16:45:40.983Z,11.00
2023-05-20T16:48:42.767Z,10.60
2023-05-20T16:51:44.712Z,10.80
2023-05-20T16:54:46.498Z,12.00
2023-05-20T16:57:49.895Z,12.00
2023-05-20T17:00:51.769Z,12.00
2023-05-20T17:03:53.606Z,11.50
2023-05-20T17:06:56.256Z,11.80
2023-05-20T17:09:57.993Z,11.80
2023-05-20T17:13:01.077Z,11.00
2023-05-20T17:16:03.078Z,11.40
2023-05-20T17:19:04.838Z,11.50
2023-05-20T17:22:06.823Z,11.70
2023-05-20T17:28:10.688Z,11.30
2023-05-20T17:31:13.096Z,11.00
2023-05-20T17:34:14.867Z,11.50
2023-05-20T17:37:16.686Z,12.40
2023-05-20T17:40:20.144Z,12.40
2023-05-20T17:43:24.624Z,12.80
2023-05-20T17:46:26.655Z,11.50
2023-05-20T17:49:28.452Z,11.30
2023-05-20T17:52:30.364Z,11.50
2023-05-20T17:55:35.550Z,11.70
2023-05-20T17:58:37.437Z,11.80
2023-05-20T18:01:39.315Z,11.40
2023-05-20T18:04:41.112Z,12.40
2023-05-20T18:07:43.770Z,12.70
2023-05-20T18:10:46.278Z,12.70
2023-05-20T18:13:48.361Z,12.70
2023-05-20T18:16:50.282Z,12.50
2023-05-20T18:19:52.068Z,12.50
2023-05-20T18:22:57.767Z,12.00
2023-05-20T18:25:59.522Z,12.30
2023-05-20T18:29:01.252Z,13.00
2023-05-20T18:32:03.211Z,12.10
2023-05-20T18:35:06.740Z,12.90
2023-05-20T18:41:10.556Z,11.90
2023-05-20T18:44:13.242Z,11.70
2023-05-20T18:47:16.511Z,12.80
2023-05-20T18:50:21.208Z,13.50
2023-05-20T18:53:23.065Z,12.20
2023-05-20T18:56:25.897Z,12.70
2023-05-20T18:59:27.621Z,13.60
2023-05-20T19:02:29.399Z,14.80
2023-05-20T19:05:31.344Z,14.70
2023-05-20T19:08:33.256Z,13.40
2023-05-20T19:11:35.293Z,13.20
2023-05-20T19:14:37.033Z,14.40
2023-05-20T19:17:38.984Z,13.40
2023-05-20T19:20:40.804Z,13.40
2023-05-20T19:23:42.712Z,12.40
2023-05-20T19:26:44.964Z,12.80
2023-05-20T19:32:48.508Z,12.60
2023-05-20T19:35:50.624Z,12.60
2023-05-20T19:41:54.385Z,12.50
2023-05-20T19:49:28.848Z,11.60
2023-05-20T19:52:31.512Z,11.30
2023-05-20T19:55:35.284Z,11.20
2023-05-20T19:58:37.424Z,11.60
2023-05-20T20:01:39.196Z,10.80
2023-05-20T20:04:44.009Z,12.10
2023-05-20T20:07:45.748Z,11.60
2023-05-20T20:10:48.550Z,12.10
2023-05-20T20:13:53.123Z,10.90
2023-05-20T20:16:54.975Z,11.00
2023-05-20T20:19:57.362Z,10.60
2023-05-20T20:22:59.099Z,10.00
2023-05-20T20:26:01.423Z,9.90
2023-05-20T20:29:03.202Z,9.80
2023-05-20T20:32:05.378Z,10.10
2023-05-20T20:35:07.887Z,9.50
2023-05-20T20:38:09.763Z,9.20
2023-05-20T20:41:17.476Z,10.00
2023-05-20T20:44:22.260Z,9.70
2023-05-20T20:47:28.574Z,9.70
2023-05-20T20:50:31.185Z,8.80
2023-05-20T20:53:32.916Z,9.00
2023-05-20T20:56:38.925Z,8.60
2023-05-20T20:59:46.898Z,8.80
2023-05-20T21:02:48.730Z,9.50
2023-05-20T21:05:51.202Z,9.60
2023-05-20T21:08:57.467Z,9.00
2023-05-20T21:11:59.833Z,9.70
2023-05-20T21:15:01.693Z,8.90
2023-05-20T21:18:03.513Z,9.10
2023-05-20T21:21:09.381Z,8.70
2023-05-20T21:24:11.094Z,8.80
2023-05-20T21:27:13.455Z,9.10
2023-05-20T21:30:16.695Z,9.00
2023-05-20T21:33:18.875Z,8.70
2023-05-20T21:39:22.589Z,8.60
2023-05-20T21:42:24.397Z,9.00
2023-05-20T21:45:26.106Z,8.60
2023-05-20T21:48:27.827Z,8.50
2023-05-20T21:51:30.814Z,7.90
2023-05-20T21:54:32.562Z,8.40
2023-05-20T21:57:34.628Z,8.30
2023-05-20T22:00:36.389Z,8.60
2023-05-20T22:03:39.209Z,7.90
2023-05-20T22:06:41.057Z,7.90
2023-05-20T22:09:42.788Z,8.10
2023-05-20T22:12:45.115Z,9.10
2023-05-20T22:15:46.784Z,8.60
2023-05-20T22:18:49.044Z,8.40
2023-05-20T22:24:53.332Z,8.60
2023-05-20T22:27:55.179Z,8.70
2023-05-20T22:30:57.258Z,8.30
2023-05-20T22:33:59.278Z,8.40
2023-05-20T22:37:02.452Z,8.40
2023-05-20T22:40:04.791Z,8.80
2023-05-20T22:43:06.706Z,8.90
2023-05-20T22:46:08.699Z,8.50
2023-05-20T22:49:12.203Z,8.90
2023-05-20T22:52:14.183Z,8.70
2023-05-20T22:55:15.999Z,8.70
2023-05-20T22:58:18.114Z,8.40
2023-05-20T23:01:20.972Z,8.30
2023-05-20T23:04:22.779Z,8.90
2023-05-20T23:07:24.527Z,8.70
2023-05-20T23:10:26.405Z,8.90
2023-05-20T23:13:28.243Z,8.70
2023-05-20T23:16:31.082Z,8.30
2023-05-20T23:19:33.053Z,8.90
2023-05-20T23:22:34.768Z,8.50
2023-05-20T23:25:36.798Z,8.10
2023-05-20T23:31:40.747Z,8.30
2023-05-20T23:34:42.937Z,8.30
2023-05-20T23:40:48.161Z,7.50
2023-05-20T23:43:50.142Z,9.20
2023-05-20T23:46:53.082Z,8.90
2023-05-20T23:49:59.502Z,8.90
2023-05-20T23:53:01.212Z,8.40
2023-05-20T23:56:03.595Z,9.00
2023-05-20T23:59:06.728Z,8.60
